createdAt,value
2019-03-26T00:01:01.737Z,1.94
2019-03-26T00:03:36.074Z,2.07
2019-03-26T00:06:04.872Z,2.22
2019-03-26T00:08:33.482Z,2.29
2019-03-26T00:11:02.037Z,2.32
2019-03-26T00:13:31.105Z,2.49
2019-03-26T00:16:00.023Z,2.50
2019-03-26T00:18:28.602Z,2.44
2019-03-26T00:20:57.466Z,2.49
2019-03-26T00:23:26.083Z,2.58
2019-03-26T00:25:54.711Z,2.56
2019-03-26T00:28:23.737Z,2.60
2019-03-26T00:30:52.675Z,2.53
2019-03-26T00:33:21.295Z,2.40
2019-03-26T00:35:49.905Z,2.31
2019-03-26T00:38:18.479Z,2.20
2019-03-26T00:40:47.031Z,2.17
2019-03-26T00:43:15.655Z,1.88
2019-03-26T00:45:44.203Z,1.89
2019-03-26T00:48:12.875Z,1.94
2019-03-26T00:50:41.502Z,1.90
2019-03-26T00:53:10.187Z,1.87
2019-03-26T00:55:39.202Z,1.89
2019-03-26T00:58:07.814Z,1.83
2019-03-26T01:00:39.075Z,1.69
2019-03-26T01:03:07.745Z,1.68
2019-03-26T01:05:36.302Z,1.71
2019-03-26T01:08:05.223Z,1.64
2019-03-26T01:10:34.267Z,1.73
2019-03-26T01:13:02.996Z,1.70
2019-03-26T01:15:31.606Z,1.69
2019-03-26T01:18:00.202Z,1.64
2019-03-26T01:20:28.851Z,1.70
2019-03-26T01:22:57.467Z,1.57
2019-03-26T01:25:26.085Z,1.59
2019-03-26T01:27:54.806Z,1.53
2019-03-26T01:30:23.421Z,1.53
2019-03-26T01:32:52.051Z,1.40
2019-03-26T01:35:20.666Z,1.43
2019-03-26T01:37:49.289Z,1.41
2019-03-26T01:40:18.216Z,1.45
2019-03-26T01:42:46.835Z,1.50
2019-03-26T01:45:15.752Z,1.40
2019-03-26T01:47:44.361Z,1.40
2019-03-26T01:50:14.519Z,1.45
2019-03-26T01:52:44.650Z,1.44
2019-03-26T01:55:16.166Z,1.46
2019-03-26T01:57:44.878Z,1.46
2019-03-26T02:00:13.965Z,1.41
2019-03-26T02:02:45.794Z,1.37
2019-03-26T02:05:14.815Z,1.44
2019-03-26T02:07:43.396Z,1.48
2019-03-26T02:10:12.088Z,1.42
2019-03-26T02:12:43.310Z,1.39
2019-03-26T02:15:14.912Z,1.41
2019-03-26T02:17:43.599Z,1.35
2019-03-26T02:20:12.222Z,1.33
2019-03-26T02:22:43.781Z,1.39
2019-03-26T02:25:14.275Z,1.31
2019-03-26T02:27:42.897Z,1.28
2019-03-26T02:30:11.623Z,1.20
2019-03-26T02:32:40.254Z,1.11
2019-03-26T02:35:17.720Z,1.12
2019-03-26T02:37:39.267Z,1.09
2019-03-26T02:40:07.953Z,1.03
2019-03-26T02:42:36.639Z,1.04
2019-03-26T02:45:06.175Z,0.92
2019-03-26T02:47:34.765Z,0.96
2019-03-26T02:50:03.905Z,0.88
2019-03-26T02:52:32.523Z,0.96
2019-03-26T02:55:01.149Z,0.94
2019-03-26T02:57:29.830Z,0.95
2019-03-26T02:59:58.441Z,0.91
2019-03-26T03:02:27.063Z,0.92
2019-03-26T03:04:55.681Z,0.96
2019-03-26T03:07:24.392Z,0.98
2019-03-26T03:09:52.948Z,1.09
2019-03-26T03:12:21.619Z,1.05
2019-03-26T03:14:50.631Z,1.05
2019-03-26T03:17:19.232Z,1.05
2019-03-26T03:19:47.796Z,1.04
2019-03-26T03:22:16.486Z,1.12
2019-03-26T03:24:45.096Z,1.14
2019-03-26T03:27:13.693Z,1.12
2019-03-26T03:29:43.853Z,1.13
2019-03-26T03:32:15.562Z,1.19
2019-03-26T03:34:44.364Z,1.29
2019-03-26T03:37:14.531Z,1.30
2019-03-26T03:39:45.772Z,1.34
2019-03-26T03:42:14.449Z,1.31
2019-03-26T03:44:44.954Z,1.32
2019-03-26T03:47:15.050Z,1.30
2019-03-26T03:49:44.061Z,1.29
2019-03-26T03:52:15.548Z,1.30
2019-03-26T03:54:45.688Z,1.28
2019-03-26T03:57:17.498Z,1.32
2019-03-26T03:59:46.697Z,1.24
2019-03-26T04:02:15.393Z,1.19
2019-03-26T04:04:44.040Z,1.20
2019-03-26T04:07:15.732Z,1.11
2019-03-26T04:09:44.336Z,1.13
2019-03-26T04:12:14.600Z,1.18
2019-03-26T04:14:45.987Z,1.18
2019-03-26T04:17:14.584Z,1.14
2019-03-26T04:19:46.011Z,1.29
2019-03-26T04:22:14.700Z,1.31
2019-03-26T04:24:46.390Z,1.32
2019-03-26T04:27:15.083Z,1.31
2019-03-26T04:29:43.719Z,1.39
2019-03-26T04:32:13.889Z,1.47
2019-03-26T04:34:44.974Z,1.59
2019-03-26T04:37:13.527Z,1.73
2019-03-26T04:39:42.199Z,1.69
2019-03-26T04:42:13.896Z,1.70
2019-03-26T04:44:45.793Z,1.78
2019-03-26T04:47:14.376Z,1.78
2019-03-26T04:49:44.470Z,1.59
2019-03-26T04:52:14.618Z,1.58
2019-03-26T04:54:46.002Z,1.50
2019-03-26T04:57:14.828Z,1.45
2019-03-26T04:59:43.447Z,1.37
2019-03-26T05:02:12.162Z,1.30
2019-03-26T05:04:43.748Z,1.24
2019-03-26T05:07:13.908Z,1.25
2019-03-26T05:09:45.455Z,1.32
2019-03-26T05:12:14.178Z,1.24
2019-03-26T05:14:43.135Z,1.28
2019-03-26T05:17:14.655Z,1.22
2019-03-26T05:19:46.423Z,1.22
2019-03-26T05:22:24.077Z,1.24
2019-03-26T05:24:45.401Z,1.25
2019-03-26T05:27:14.024Z,1.31
2019-03-26T05:29:45.300Z,1.36
2019-03-26T05:32:14.318Z,1.46
2019-03-26T05:34:43.244Z,1.63
2019-03-26T05:37:14.527Z,1.72
2019-03-26T05:39:44.711Z,1.89
2019-03-26T05:42:16.059Z,1.98
2019-03-26T05:44:44.679Z,2.01
2019-03-26T05:47:16.256Z,2.09
2019-03-26T05:49:44.811Z,2.15
2019-03-26T05:52:13.596Z,2.16
2019-03-26T05:54:42.220Z,2.26
2019-03-26T05:57:13.764Z,2.26
2019-03-26T05:59:44.159Z,2.32
2019-03-26T06:02:15.285Z,2.41
2019-03-26T06:04:45.005Z,2.38
2019-03-26T06:07:13.818Z,2.39
2019-03-26T06:09:42.797Z,2.45
2019-03-26T06:12:13.195Z,2.51
2019-03-26T06:15:00.887Z,2.53
2019-03-26T06:17:30.507Z,2.59
2019-03-26T06:19:59.228Z,2.53
2019-03-26T06:22:27.833Z,2.55
2019-03-26T06:24:56.464Z,2.59
2019-03-26T06:27:25.066Z,2.57
2019-03-26T06:29:53.685Z,2.62
2019-03-26T06:32:22.500Z,2.68
2019-03-26T06:34:51.083Z,2.67
2019-03-26T06:37:19.720Z,2.73
2019-03-26T06:39:48.433Z,2.72
2019-03-26T06:42:17.039Z,2.78
2019-03-26T06:44:45.617Z,2.89
2019-03-26T06:47:14.257Z,2.96
2019-03-26T06:49:42.836Z,3.04
2019-03-26T06:52:13.427Z,3.12
2019-03-26T06:54:42.005Z,3.19
2019-03-26T06:57:35.110Z,3.28
2019-03-26T06:59:54.745Z,3.37
2019-03-26T07:02:23.472Z,3.56
2019-03-26T07:04:52.120Z,3.57
2019-03-26T07:07:30.953Z,3.52
2019-03-26T07:09:50.954Z,3.72
2019-03-26T07:12:19.849Z,3.86
2019-03-26T07:14:48.412Z,4.01
2019-03-26T07:17:16.982Z,4.10
2019-03-26T07:19:45.552Z,4.18
2019-03-26T07:22:14.186Z,4.33
2019-03-26T07:24:42.904Z,4.29
2019-03-26T07:27:11.520Z,4.22
2019-03-26T07:30:06.324Z,4.33
2019-03-26T07:32:34.874Z,4.41
2019-03-26T07:35:03.916Z,4.45
2019-03-26T07:37:44.625Z,4.39
2019-03-26T07:40:02.781Z,4.47
2019-03-26T07:42:31.321Z,4.47
2019-03-26T07:44:59.895Z,4.45
2019-03-26T07:47:28.471Z,4.49
2019-03-26T07:49:57.070Z,4.50
2019-03-26T07:52:26.025Z,4.68
2019-03-26T07:54:54.613Z,4.68
2019-03-26T07:57:23.169Z,4.66
2019-03-26T07:59:51.746Z,4.66
2019-03-26T08:02:20.569Z,4.84
2019-03-26T08:04:49.140Z,4.80
2019-03-26T08:07:18.124Z,5.07
2019-03-26T08:09:46.709Z,5.23
2019-03-26T08:12:15.252Z,5.39
2019-03-26T08:14:43.836Z,5.39
2019-03-26T08:17:12.461Z,5.47
2019-03-26T08:19:41.035Z,5.84
2019-03-26T08:22:09.588Z,6.00
2019-03-26T08:24:38.165Z,5.74
2019-03-26T08:27:06.731Z,5.74
2019-03-26T08:29:35.716Z,6.03
2019-03-26T08:32:04.273Z,5.81
2019-03-26T08:34:32.816Z,5.99
2019-03-26T08:37:01.392Z,6.33
2019-03-26T08:39:30.361Z,6.33
2019-03-26T08:41:58.934Z,6.38
2019-03-26T08:44:27.489Z,6.53
2019-03-26T08:46:56.060Z,6.59
2019-03-26T08:49:30.395Z,6.64
2019-03-26T08:51:55.253Z,6.65
2019-03-26T08:54:23.817Z,7.08
2019-03-26T08:56:52.397Z,7.22
2019-03-26T08:59:20.939Z,7.48
2019-03-26T09:01:49.583Z,7.43
2019-03-26T09:04:18.133Z,7.48
2019-03-26T09:06:46.707Z,7.75
2019-03-26T09:09:15.319Z,7.44
2019-03-26T09:11:43.904Z,7.32
2019-03-26T09:14:15.558Z,7.05
2019-03-26T09:16:44.131Z,6.86
2019-03-26T09:19:12.691Z,6.85
2019-03-26T09:21:42.997Z,6.62
2019-03-26T09:24:11.544Z,6.70
2019-03-26T09:26:41.369Z,6.52
2019-03-26T09:29:09.945Z,6.31
2019-03-26T09:31:38.918Z,6.36
2019-03-26T09:34:09.956Z,6.46
2019-03-26T09:36:38.158Z,6.77
2019-03-26T09:39:07.750Z,7.08
2019-03-26T09:41:36.322Z,7.20
2019-03-26T09:44:04.937Z,6.99
2019-03-26T09:46:33.522Z,6.83
2019-03-26T09:49:02.072Z,6.62
2019-03-26T09:51:30.638Z,6.87
2019-03-26T09:53:59.184Z,6.77
2019-03-26T09:56:30.742Z,6.93
2019-03-26T09:58:58.035Z,6.77
2019-03-26T10:01:26.629Z,6.98
2019-03-26T10:03:55.157Z,6.98
2019-03-26T10:06:24.233Z,6.88
2019-03-26T10:08:53.118Z,6.92
2019-03-26T10:11:21.681Z,7.06
2019-03-26T10:13:53.015Z,7.25
2019-03-26T10:16:21.481Z,7.60
2019-03-26T10:18:50.059Z,7.78
2019-03-26T10:21:18.614Z,7.73
2019-03-26T10:23:47.177Z,7.76
2019-03-26T10:26:15.740Z,8.25
2019-03-26T10:28:44.320Z,8.10
2019-03-26T10:31:12.867Z,8.18
2019-03-26T10:33:43.087Z,8.10
2019-03-26T10:36:12.021Z,7.87
2019-03-26T10:38:42.636Z,7.50
2019-03-26T10:41:12.925Z,7.32
2019-03-26T10:43:41.497Z,7.40
2019-03-26T10:46:10.378Z,7.86
2019-03-26T10:48:38.954Z,8.02
2019-03-26T10:51:07.903Z,7.87
2019-03-26T10:53:36.483Z,7.97
2019-03-26T10:56:05.029Z,7.73
2019-03-26T10:58:33.670Z,7.88
2019-03-26T11:01:02.220Z,7.81
2019-03-26T11:03:30.792Z,7.89
2019-03-26T11:05:59.639Z,7.91
2019-03-26T11:08:28.281Z,7.72
2019-03-26T11:10:57.239Z,7.40
2019-03-26T11:13:25.815Z,7.30
2019-03-26T11:15:54.434Z,7.40
2019-03-26T11:18:23.018Z,7.34
2019-03-26T11:21:01.840Z,7.31
2019-03-26T11:23:21.842Z,7.29
2019-03-26T11:25:50.462Z,7.26
2019-03-26T11:28:19.094Z,7.34
2019-03-26T11:30:47.641Z,7.45
2019-03-26T11:33:16.291Z,7.73
2019-03-26T11:35:44.915Z,7.94
2019-03-26T11:38:13.563Z,7.99
2019-03-26T11:40:43.628Z,8.05
2019-03-26T11:43:13.691Z,8.29
2019-03-26T11:45:44.125Z,8.75
2019-03-26T11:48:12.699Z,8.54
2019-03-26T11:50:43.048Z,8.37
2019-03-26T11:53:11.676Z,8.22
2019-03-26T11:55:40.254Z,8.21
2019-03-26T11:58:08.871Z,7.99
2019-03-26T12:00:38.792Z,7.86
2019-03-26T12:03:07.412Z,8.07
2019-03-26T12:05:36.826Z,8.08
2019-03-26T12:08:05.361Z,7.98
2019-03-26T12:10:34.004Z,7.81
2019-03-26T12:13:02.623Z,7.66
2019-03-26T12:15:31.203Z,7.49
2019-03-26T12:17:59.755Z,7.37
2019-03-26T12:20:28.320Z,7.37
2019-03-26T12:22:56.878Z,7.44
2019-03-26T12:25:25.449Z,7.66
2019-03-26T12:27:53.999Z,7.76
2019-03-26T12:30:33.773Z,8.15
2019-03-26T12:33:02.409Z,8.17
2019-03-26T12:38:18.248Z,8.47
2019-03-26T12:40:47.055Z,8.38
2019-03-26T12:43:15.813Z,8.05
2019-03-26T12:45:44.431Z,7.99
2019-03-26T12:48:14.584Z,7.78
2019-03-26T12:50:46.167Z,7.51
2019-03-26T12:53:14.726Z,7.49
2019-03-26T12:55:46.711Z,7.57
2019-03-26T12:58:15.259Z,7.46
2019-03-26T13:00:44.236Z,7.28
2019-03-26T13:03:12.926Z,7.05
2019-03-26T13:05:41.567Z,6.71
2019-03-26T13:08:10.194Z,6.59
2019-03-26T13:10:52.298Z,6.46
2019-03-26T13:13:09.051Z,6.55
2019-03-26T13:15:37.629Z,6.74
2019-03-26T13:18:06.253Z,6.83
2019-03-26T13:20:34.818Z,6.73
2019-03-26T13:23:03.370Z,6.84
2019-03-26T13:25:31.940Z,6.92
2019-03-26T13:28:00.499Z,7.11
2019-03-26T13:30:29.101Z,7.03
2019-03-26T13:32:57.648Z,6.75
2019-03-26T13:35:26.199Z,6.59
2019-03-26T13:37:54.777Z,6.79
2019-03-26T13:40:27.503Z,7.25
2019-03-26T13:42:53.628Z,7.42
2019-03-26T13:45:22.556Z,7.33
2019-03-26T13:47:51.178Z,7.06
2019-03-26T13:50:20.515Z,7.03
2019-03-26T13:52:49.120Z,6.92
2019-03-26T13:55:17.724Z,6.75
2019-03-26T13:57:46.304Z,6.75
2019-03-26T14:00:17.905Z,6.57
2019-03-26T14:02:46.613Z,6.78
2019-03-26T14:05:25.945Z,7.02
2019-03-26T14:07:54.587Z,7.03
2019-03-26T14:10:23.278Z,7.24
2019-03-26T14:12:51.908Z,7.16
2019-03-26T14:15:20.519Z,7.00
2019-03-26T14:17:49.381Z,6.91
2019-03-26T14:20:19.370Z,6.80
2019-03-26T14:22:47.943Z,6.80
2019-03-26T14:25:17.069Z,6.92
2019-03-26T14:27:45.648Z,7.28
2019-03-26T14:30:14.930Z,7.45
2019-03-26T14:32:43.503Z,7.95
2019-03-26T14:35:12.201Z,7.60
2019-03-26T14:37:51.095Z,7.60
2019-03-26T14:40:12.455Z,7.29
2019-03-26T14:42:42.023Z,7.12
2019-03-26T14:45:13.262Z,6.88
2019-03-26T14:47:44.701Z,6.76
2019-03-26T14:50:16.947Z,6.64
2019-03-26T14:52:45.522Z,6.69
2019-03-26T14:55:14.334Z,6.32
2019-03-26T14:57:42.909Z,5.94
2019-03-26T15:00:15.747Z,5.64
2019-03-26T15:02:44.314Z,5.38
2019-03-26T15:05:13.006Z,5.24
2019-03-26T15:07:41.965Z,5.49
2019-03-26T15:10:13.516Z,5.49
2019-03-26T15:12:42.150Z,5.45
2019-03-26T15:15:14.439Z,5.48
2019-03-26T15:17:44.562Z,5.67
2019-03-26T15:20:15.054Z,5.76
2019-03-26T15:22:43.646Z,5.83
2019-03-26T15:25:13.915Z,5.83
2019-03-26T15:27:45.556Z,6.34
2019-03-26T15:30:14.653Z,6.34
2019-03-26T15:32:46.108Z,6.47
2019-03-26T15:35:14.896Z,6.77
2019-03-26T15:37:43.470Z,7.31
2019-03-26T15:40:13.887Z,7.60
2019-03-26T15:42:45.426Z,7.78
2019-03-26T15:45:14.805Z,7.81
2019-03-26T15:47:43.412Z,8.14
2019-03-26T15:50:13.669Z,8.12
2019-03-26T15:52:43.929Z,8.27
2019-03-26T15:55:15.615Z,8.21
2019-03-26T15:57:44.218Z,8.41
2019-03-26T16:00:14.570Z,8.42
2019-03-26T16:02:46.082Z,8.83
2019-03-26T16:05:14.666Z,8.83
2019-03-26T16:07:46.453Z,8.66
2019-03-26T16:10:15.073Z,8.94
2019-03-26T16:12:44.082Z,8.47
2019-03-26T16:15:13.025Z,8.55
2019-03-26T16:17:41.572Z,8.30
2019-03-26T16:20:10.741Z,8.31
2019-03-26T16:22:39.351Z,8.33
2019-03-26T16:25:08.172Z,8.35
2019-03-26T16:27:36.846Z,8.20
2019-03-26T16:30:07.257Z,8.16
2019-03-26T16:32:35.948Z,8.07
2019-03-26T16:35:05.563Z,8.03
2019-03-26T16:37:34.118Z,7.90
2019-03-26T16:40:02.762Z,7.80
2019-03-26T16:42:31.313Z,7.77
2019-03-26T16:44:59.888Z,7.65
2019-03-26T16:47:28.421Z,7.56
2019-03-26T16:49:56.994Z,7.49
2019-03-26T16:52:26.799Z,7.43
2019-03-26T16:54:55.669Z,7.44
2019-03-26T16:57:24.210Z,7.31
2019-03-26T16:59:52.856Z,7.32
2019-03-26T17:02:21.410Z,7.31
2019-03-26T17:04:49.981Z,7.22
2019-03-26T17:07:18.523Z,7.18
2019-03-26T17:09:47.445Z,7.14
2019-03-26T17:12:16.315Z,7.20
2019-03-26T17:14:44.888Z,7.20
2019-03-26T17:17:13.435Z,7.22
2019-03-26T17:19:42.013Z,7.22
2019-03-26T17:22:12.878Z,7.17
2019-03-26T17:24:41.456Z,7.12
2019-03-26T17:27:11.919Z,7.11
2019-03-26T17:29:42.663Z,7.11
2019-03-26T17:32:12.946Z,7.04
2019-03-26T17:34:41.907Z,6.96
2019-03-26T17:37:13.014Z,6.91
2019-03-26T17:39:41.581Z,6.93
2019-03-26T17:42:17.090Z,6.90
2019-03-26T17:44:40.451Z,6.92
2019-03-26T17:47:09.013Z,6.87
2019-03-26T17:49:37.610Z,6.94
2019-03-26T17:52:06.145Z,6.89
2019-03-26T17:54:34.715Z,6.84
2019-03-26T17:57:03.260Z,6.86
2019-03-26T17:59:31.836Z,6.82
2019-03-26T18:02:00.394Z,6.71
2019-03-26T18:04:30.416Z,6.55
2019-03-26T18:06:58.960Z,6.40
2019-03-26T18:09:27.531Z,6.47
2019-03-26T18:11:56.079Z,6.45
2019-03-26T18:14:25.054Z,6.50
2019-03-26T18:16:53.599Z,6.54
2019-03-26T18:19:22.146Z,6.44
2019-03-26T18:21:51.950Z,6.38
2019-03-26T18:24:20.646Z,6.32
2019-03-26T18:26:49.218Z,6.27
2019-03-26T18:29:17.779Z,6.27
2019-03-26T18:31:46.573Z,6.32
2019-03-26T18:34:15.126Z,6.32
2019-03-26T18:36:44.059Z,6.22
2019-03-26T18:39:15.689Z,6.29
2019-03-26T18:41:44.270Z,6.19
2019-03-26T18:44:12.814Z,6.20
2019-03-26T18:46:43.031Z,6.24
2019-03-26T18:49:11.977Z,6.18
2019-03-26T18:51:43.038Z,6.16
2019-03-26T18:54:11.593Z,6.11
2019-03-26T18:56:41.304Z,6.11
2019-03-26T18:59:09.793Z,6.14
2019-03-26T19:01:38.743Z,5.99
2019-03-26T19:04:07.297Z,6.09
2019-03-26T19:06:35.867Z,6.09
2019-03-26T19:09:05.666Z,6.05
2019-03-26T19:11:34.379Z,5.97
2019-03-26T19:14:04.046Z,5.99
2019-03-26T19:16:32.691Z,6.00
2019-03-26T19:19:01.247Z,6.00
2019-03-26T19:21:29.823Z,5.97
2019-03-26T19:24:03.904Z,5.91
2019-03-26T19:26:28.732Z,5.91
2019-03-26T19:28:57.373Z,5.84
2019-03-26T19:31:27.835Z,5.83
2019-03-26T19:33:56.676Z,5.82
2019-03-26T19:36:25.300Z,5.82
2019-03-26T19:38:54.692Z,5.78
2019-03-26T19:41:23.644Z,5.80
2019-03-26T19:43:52.190Z,5.89
2019-03-26T19:46:20.771Z,5.87
2019-03-26T19:48:49.356Z,5.84
2019-03-26T19:51:18.014Z,5.78
2019-03-26T19:53:46.637Z,5.77
2019-03-26T19:56:15.295Z,5.77
2019-03-26T19:58:43.849Z,5.80
2019-03-26T20:01:13.163Z,5.81
2019-03-26T20:03:44.410Z,5.82
2019-03-26T20:06:14.513Z,5.88
2019-03-26T20:08:45.856Z,5.81
2019-03-26T20:11:15.414Z,5.76
2019-03-26T20:13:44.295Z,5.76
2019-03-26T20:16:15.899Z,5.70
2019-03-26T20:18:44.553Z,5.70
2019-03-26T20:21:16.283Z,5.81
2019-03-26T20:23:44.875Z,5.72
2019-03-26T20:26:13.522Z,5.70
2019-03-26T20:28:43.819Z,5.70
2019-03-26T20:31:14.291Z,5.64
2019-03-26T20:33:44.395Z,5.64
2019-03-26T20:36:14.506Z,5.62
2019-03-26T20:38:44.611Z,5.66
2019-03-26T20:41:15.964Z,5.72
2019-03-26T20:43:44.542Z,5.69
2019-03-26T20:46:15.833Z,5.56
2019-03-26T20:48:44.476Z,5.69
2019-03-26T20:51:14.922Z,5.63
2019-03-26T20:53:43.494Z,5.80
2019-03-26T20:56:12.221Z,5.73
2019-03-26T20:58:41.157Z,5.78
2019-03-26T21:01:09.719Z,5.69
2019-03-26T21:03:38.291Z,5.52
2019-03-26T21:06:07.242Z,5.54
2019-03-26T21:08:36.275Z,5.71
2019-03-26T21:11:05.147Z,5.69
2019-03-26T21:13:33.729Z,5.68
2019-03-26T21:16:02.711Z,5.51
2019-03-26T21:18:31.282Z,5.49
2019-03-26T21:20:59.839Z,5.46
2019-03-26T21:23:28.502Z,5.45
2019-03-26T21:25:57.051Z,5.39
2019-03-26T21:28:25.954Z,5.36
2019-03-26T21:30:54.505Z,5.37
2019-03-26T21:33:23.083Z,5.39
2019-03-26T21:35:51.632Z,5.39
2019-03-26T21:38:20.210Z,5.39
2019-03-26T21:40:48.761Z,5.25
2019-03-26T21:43:17.344Z,5.31
2019-03-26T21:45:45.905Z,5.26
2019-03-26T21:48:14.921Z,5.14
2019-03-26T21:50:43.471Z,5.14
2019-03-26T21:53:12.048Z,5.27
2019-03-26T21:55:42.623Z,5.20
2019-03-26T21:58:12.813Z,5.27
2019-03-26T22:00:44.487Z,5.27
2019-03-26T22:03:15.903Z,5.23
2019-03-26T22:05:44.468Z,5.16
2019-03-26T22:08:14.556Z,5.16
2019-03-26T22:10:44.667Z,5.13
2019-03-26T22:13:15.906Z,5.08
2019-03-26T22:15:44.793Z,4.79
2019-03-26T22:18:13.353Z,4.67
2019-03-26T22:20:41.992Z,4.46
2019-03-26T22:23:13.192Z,4.46
2019-03-26T22:25:44.573Z,4.44
2019-03-26T22:28:14.668Z,4.52
2019-03-26T22:30:46.563Z,4.35
2019-03-26T22:33:15.114Z,4.35
2019-03-26T22:35:43.697Z,4.41
2019-03-26T22:38:13.754Z,4.38
2019-03-26T22:40:43.841Z,4.27
2019-03-26T22:43:13.911Z,4.25
2019-03-26T22:45:42.928Z,4.14
2019-03-26T22:48:11.479Z,4.09
2019-03-26T22:50:42.059Z,4.09
2019-03-26T22:53:10.335Z,3.99
2019-03-26T22:55:39.642Z,3.93
2019-03-26T22:58:08.208Z,3.89
2019-03-26T23:00:37.503Z,3.88
2019-03-26T23:03:06.546Z,3.86
2019-03-26T23:05:35.302Z,3.79
2019-03-26T23:08:03.873Z,3.65
2019-03-26T23:10:32.525Z,3.65
2019-03-26T23:13:01.079Z,3.65
2019-03-26T23:15:29.790Z,3.58
2019-03-26T23:17:58.408Z,3.58
2019-03-26T23:20:26.992Z,3.53
2019-03-26T23:22:56.232Z,3.45
2019-03-26T23:25:24.805Z,3.45
2019-03-26T23:27:53.359Z,3.46
2019-03-26T23:30:21.981Z,3.41
2019-03-26T23:32:50.894Z,3.32
2019-03-26T23:35:19.480Z,3.27
2019-03-26T23:37:48.024Z,3.27
2019-03-26T23:40:16.859Z,3.21
2019-03-26T23:42:45.753Z,3.25
2019-03-26T23:45:14.400Z,3.25
2019-03-26T23:47:44.492Z,3.24
2019-03-26T23:50:14.654Z,3.13
2019-03-26T23:52:45.956Z,3.15
2019-03-26T23:55:14.674Z,3.20
2019-03-26T23:57:46.383Z,3.31
